sensor_id;sensor_type;location;lat;lon;timestamp;P1;durP1;ratioP1;P2;durP2;ratioP2
3287;SDS011;3260;52.438;13.502;2022-07-12T04:00:37;5.03;;;0.80;;
3287;SDS011;3260;52.438;13.502;2022-07-12T04:03:06;5.03;;;0.90;;
3287;SDS011;3260;52.438;13.502;2022-07-12T04:05:34;5.10;;;0.90;;
3287;SDS011;3260;52.438;13.502;2022-07-12T04:08:02;4.97;;;0.80;;
3287;SDS011;3260;52.438;13.502;2022-07-12T04:10:31;5.10;;;0.90;;
3287;SDS011;3260;52.438;13.502;2022-07-12T04:12:59;5.10;;;0.90;;
3287;SDS011;3260;52.438;13.502;2022-07-12T04:15:27;5.10;;;0.90;;
3287;SDS011;3260;52.438;13.502;2022-07-12T04:17:57;5.07;;;0.90;;
3287;SDS011;3260;52.438;13.502;2022-07-12T04:20:25;5.10;;;0.90;;
3287;SDS011;3260;52.438;13.502;2022-07-12T04:22:53;5.10;;;0.83;;
3287;SDS011;3260;52.438;13.502;2022-07-12T04:25:21;5.10;;;0.90;;
3287;SDS011;3260;52.438;13.502;2022-07-12T04:27:51;5.10;;;0.87;;
3287;SDS011;3260;52.438;13.502;2022-07-12T04:30:19;5.07;;;0.90;;
3287;SDS011;3260;52.438;13.502;2022-07-12T04:32:47;5.03;;;0.80;;
3287;SDS011;3260;52.438;13.502;2022-07-12T04:35:18;5.07;;;0.80;;
3287;SDS011;3260;52.438;13.502;2022-07-12T04:37:46;5.10;;;0.90;;
3287;SDS011;3260;52.438;13.502;2022-07-12T04:40:14;5.10;;;0.90;;
3287;SDS011;3260;52.438;13.502;2022-07-12T04:42:42;5.10;;;0.90;;
3287;SDS011;3260;52.438;13.502;2022-07-12T04:45:10;5.07;;;0.90;;
3287;SDS011;3260;52.438;13.502;2022-07-12T04:47:38;5.07;;;0.83;;
3287;SDS011;3260;52.438;13.502;2022-07-12T04:50:07;5.07;;;0.83;;
3287;SDS011;3260;52.438;13.502;2022-07-12T04:52:36;5.03;;;0.80;;
3287;SDS011;3260;52.438;13.502;2022-07-12T04:55:05;5.10;;;0.80;;
3287;SDS011;3260;52.438;13.502;2022-07-12T04:57:34;5.10;;;0.90;;
3287;SDS011;3260;52.438;13.502;2022-07-12T05:00:02;5.10;;;0.90;;
3287;SDS011;3260;52.438;13.502;2022-07-12T05:02:32;5.10;;;0.80;;
3287;SDS011;3260;52.438;13.502;2022-07-12T05:05:00;5.10;;;0.80;;
3287;SDS011;3260;52.438;13.502;2022-07-12T05:07:28;5.10;;;0.90;;
3287;SDS011;3260;52.438;13.502;2022-07-12T05:09:58;5.40;;;1.10;;
3287;SDS011;3260;52.438;13.502;2022-07-12T05:12:26;5.10;;;0.90;;
3287;SDS011;3260;52.438;13.502;2022-07-12T05:14:54;5.10;;;0.90;;
3287;SDS011;3260;52.438;13.502;2022-07-12T05:17:23;5.10;;;0.90;;
3287;SDS011;3260;52.438;13.502;2022-07-12T05:19:51;5.20;;;0.90;;
3287;SDS011;3260;52.438;13.502;2022-07-12T05:22:19;5.10;;;0.90;;
3287;SDS011;3260;52.438;13.502;2022-07-12T05:24:47;5.17;;;0.90;;
3287;SDS011;3260;52.438;13.502;2022-07-12T05:27:16;5.17;;;0.90;;
3287;SDS011;3260;52.438;13.502;2022-07-12T05:29:44;5.20;;;0.90;;
3287;SDS011;3260;52.438;13.502;2022-07-12T05:32:12;5.10;;;0.90;;
3287;SDS011;3260;52.438;13.502;2022-07-12T05:34:41;5.13;;;0.90;;
3287;SDS011;3260;52.438;13.502;2022-07-12T05:37:09;5.10;;;0.80;;
3287;SDS011;3260;52.438;13.502;2022-07-12T05:39:37;5.17;;;0.90;;
3287;SDS011;3260;52.438;13.502;2022-07-12T05:42:10;5.13;;;0.87;;
3287;SDS011;3260;52.438;13.502;2022-07-12T05:44:40;5.30;;;0.90;;
3287;SDS011;3260;52.438;13.502;2022-07-12T05:47:08;5.20;;;0.90;;
3287;SDS011;3260;52.438;13.502;2022-07-12T05:49:36;5.20;;;0.90;;
3287;SDS011;3260;52.438;13.502;2022-07-12T05:52:04;5.20;;;0.90;;
3287;SDS011;3260;52.438;13.502;2022-07-12T05:54:50;5.23;;;0.90;;
3287;SDS011;3260;52.438;13.502;2022-07-12T05:57:18;5.20;;;0.90;;
3287;SDS011;3260;52.438;13.502;2022-07-12T05:59:48;5.23;;;0.90;;
3287;SDS011;3260;52.438;13.502;2022-07-12T06:02:16;5.20;;;0.90;;
3287;SDS011;3260;52.438;13.502;2022-07-12T06:04:44;5.20;;;0.90;;
3287;SDS011;3260;52.438;13.502;2022-07-12T06:07:16;5.27;;;0.90;;
3287;SDS011;3260;52.438;13.502;2022-07-12T06:09:45;5.20;;;0.90;;
3287;SDS011;3260;52.438;13.502;2022-07-12T06:12:13;5.27;;;0.87;;
3287;SDS011;3260;52.438;13.502;2022-07-12T06:14:41;5.20;;;0.90;;
3287;SDS011;3260;52.438;13.502;2022-07-12T06:17:10;5.23;;;0.90;;
3287;SDS011;3260;52.438;13.502;2022-07-12T06:19:38;5.17;;;0.90;;
3287;SDS011;3260;52.438;13.502;2022-07-12T06:22:06;5.20;;;0.90;;
3287;SDS011;3260;52.438;13.502;2022-07-12T06:24:34;5.20;;;0.90;;
3287;SDS011;3260;52.438;13.502;2022-07-12T06:27:02;5.17;;;0.90;;
3287;SDS011;3260;52.438;13.502;2022-07-12T06:29:31;5.80;;;1.03;;
3287;SDS011;3260;52.438;13.502;2022-07-12T06:31:59;5.70;;;1.00;;
3287;SDS011;3260;52.438;13.502;2022-07-12T06:34:29;5.23;;;0.90;;
3287;SDS011;3260;52.438;13.502;2022-07-12T06:36:57;5.20;;;0.87;;
3287;SDS011;3260;52.438;13.502;2022-07-12T06:39:25;5.20;;;0.90;;
3287;SDS011;3260;52.438;13.502;2022-07-12T06:41:53;5.30;;;0.90;;
3287;SDS011;3260;52.438;13.502;2022-07-12T06:44:21;5.20;;;0.90;;
3287;SDS011;3260;52.438;13.502;2022-07-12T06:46:50;5.30;;;0.90;;
3287;SDS011;3260;52.438;13.502;2022-07-12T06:49:18;5.23;;;0.90;;
3287;SDS011;3260;52.438;13.502;2022-07-12T06:51:47;5.17;;;0.80;;
3287;SDS011;3260;52.438;13.502;2022-07-12T06:54:15;5.23;;;0.90;;
3287;SDS011;3260;52.438;13.502;2022-07-12T06:56:44;5.30;;;0.90;;
3287;SDS011;3260;52.438;13.502;2022-07-12T06:59:12;5.27;;;0.90;;
3287;SDS011;3260;52.438;13.502;2022-07-12T07:01:41;5.23;;;0.90;;
3287;SDS011;3260;52.438;13.502;2022-07-12T07:04:10;5.20;;;0.90;;
3287;SDS011;3260;52.438;13.502;2022-07-12T07:06:38;5.17;;;0.90;;
3287;SDS011;3260;52.438;13.502;2022-07-12T07:09:08;5.20;;;0.90;;
3287;SDS011;3260;52.438;13.502;2022-07-12T07:11:36;5.30;;;0.90;;
3287;SDS011;3260;52.438;13.502;2022-07-12T07:14:04;5.23;;;1.00;;
3287;SDS011;3260;52.438;13.502;2022-07-12T07:16:32;5.40;;;1.00;;
3287;SDS011;3260;52.438;13.502;2022-07-12T07:19:01;5.17;;;0.80;;
3287;SDS011;3260;52.438;13.502;2022-07-12T07:21:29;5.17;;;0.83;;
3287;SDS011;3260;52.438;13.502;2022-07-12T07:23:57;5.20;;;0.90;;
3287;SDS011;3260;52.438;13.502;2022-07-12T07:26:27;5.20;;;0.90;;
3287;SDS011;3260;52.438;13.502;2022-07-12T07:28:55;5.20;;;1.03;;
3287;SDS011;3260;52.438;13.502;2022-07-12T07:31:40;5.23;;;0.90;;
3287;SDS011;3260;52.438;13.502;2022-07-12T07:34:09;5.20;;;0.90;;
3287;SDS011;3260;52.438;13.502;2022-07-12T07:36:38;7.93;;;1.50;;
3287;SDS011;3260;52.438;13.502;2022-07-12T07:39:06;5.17;;;0.90;;
3287;SDS011;3260;52.438;13.502;2022-07-12T07:41:36;5.17;;;0.83;;
3287;SDS011;3260;52.438;13.502;2022-07-12T07:44:04;5.20;;;0.80;;
3287;SDS011;3260;52.438;13.502;2022-07-12T07:46:32;5.50;;;0.90;;
3287;SDS011;3260;52.438;13.502;2022-07-12T07:49:00;5.20;;;0.90;;
3287;SDS011;3260;52.438;13.502;2022-07-12T07:51:29;5.23;;;1.00;;
3287;SDS011;3260;52.438;13.502;2022-07-12T07:53:58;5.37;;;1.20;;
3287;SDS011;3260;52.438;13.502;2022-07-12T07:56:26;5.17;;;0.90;;
3287;SDS011;3260;52.438;13.502;2022-07-12T07:58:55;5.43;;;1.00;;
3287;SDS011;3260;52.438;13.502;2022-07-12T08:01:23;5.20;;;0.90;;
3287;SDS011;3260;52.438;13.502;2022-07-12T08:04:08;5.70;;;1.00;;
3287;SDS011;3260;52.438;13.502;2022-07-12T08:06:37;5.20;;;0.87;;
3287;SDS011;3260;52.438;13.502;2022-07-12T08:09:05;5.17;;;0.90;;
3287;SDS011;3260;52.438;13.502;2022-07-12T08:11:39;5.20;;;0.90;;
3287;SDS011;3260;52.438;13.502;2022-07-12T08:14:09;5.20;;;0.90;;
3287;SDS011;3260;52.438;13.502;2022-07-12T08:16:38;5.23;;;0.90;;
3287;SDS011;3260;52.438;13.502;2022-07-12T08:19:06;5.20;;;0.90;;
3287;SDS011;3260;52.438;13.502;2022-07-12T08:21:35;5.20;;;0.90;;
3287;SDS011;3260;52.438;13.502;2022-07-12T08:24:04;5.17;;;0.90;;
3287;SDS011;3260;52.438;13.502;2022-07-12T08:26:32;5.20;;;0.90;;
3287;SDS011;3260;52.438;13.502;2022-07-12T08:29:00;5.20;;;0.90;;
3287;SDS011;3260;52.438;13.502;2022-07-12T08:31:29;5.07;;;0.90;;
3287;SDS011;3260;52.438;13.502;2022-07-12T08:33:57;5.13;;;0.90;;
3287;SDS011;3260;52.438;13.502;2022-07-12T08:36:26;5.10;;;0.90;;
3287;SDS011;3260;52.438;13.502;2022-07-12T08:38:59;5.30;;;1.00;;
3287;SDS011;3260;52.438;13.502;2022-07-12T08:41:27;5.10;;;0.90;;
3287;SDS011;3260;52.438;13.502;2022-07-12T08:43:55;5.10;;;0.90;;
3287;SDS011;3260;52.438;13.502;2022-07-12T08:46:24;5.10;;;0.90;;
3287;SDS011;3260;52.438;13.502;2022-07-12T08:48:53;5.10;;;0.90;;
3287;SDS011;3260;52.438;13.502;2022-07-12T08:51:22;5.60;;;1.10;;
3287;SDS011;3260;52.438;13.502;2022-07-12T08:54:04;5.20;;;1.00;;
3287;SDS011;3260;52.438;13.502;2022-07-12T08:56:35;6.07;;;1.23;;
3287;SDS011;3260;52.438;13.502;2022-07-12T08:59:08;5.13;;;0.90;;
3287;SDS011;3260;52.438;13.502;2022-07-12T09:01:41;5.17;;;1.00;;
3287;SDS011;3260;52.438;13.502;2022-07-12T09:04:15;5.10;;;0.90;;
3287;SDS011;3260;52.438;13.502;2022-07-12T09:06:45;5.13;;;0.90;;
3287;SDS011;3260;52.438;13.502;2022-07-12T09:09:24;5.23;;;0.90;;
3287;SDS011;3260;52.438;13.502;2022-07-12T09:11:55;5.60;;;1.30;;
3287;SDS011;3260;52.438;13.502;2022-07-12T09:14:23;5.17;;;0.90;;
3287;SDS011;3260;52.438;13.502;2022-07-12T09:16:59;5.07;;;0.87;;
3287;SDS011;3260;52.438;13.502;2022-07-12T09:19:30;5.10;;;1.00;;
3287;SDS011;3260;52.438;13.502;2022-07-12T09:21:59;5.10;;;0.90;;
3287;SDS011;3260;52.438;13.502;2022-07-12T09:24:27;5.10;;;0.90;;
3287;SDS011;3260;52.438;13.502;2022-07-12T09:26:56;5.10;;;0.80;;
3287;SDS011;3260;52.438;13.502;2022-07-12T09:29:27;5.03;;;0.90;;
3287;SDS011;3260;52.438;13.502;2022-07-12T09:31:56;5.10;;;0.80;;
3287;SDS011;3260;52.438;13.502;2022-07-12T09:34:43;5.10;;;0.90;;
3287;SDS011;3260;52.438;13.502;2022-07-12T09:37:28;5.30;;;0.90;;
3287;SDS011;3260;52.438;13.502;2022-07-12T09:40:07;5.10;;;0.90;;
3287;SDS011;3260;52.438;13.502;2022-07-12T09:42:36;5.20;;;0.90;;
3287;SDS011;3260;52.438;13.502;2022-07-12T09:45:07;5.40;;;1.00;;
3287;SDS011;3260;52.438;13.502;2022-07-12T09:47:37;5.10;;;0.90;;
3287;SDS011;3260;52.438;13.502;2022-07-12T09:50:07;5.13;;;0.90;;
3287;SDS011;3260;52.438;13.502;2022-07-12T09:52:37;5.10;;;0.80;;
3287;SDS011;3260;52.438;13.502;2022-07-12T09:55:07;5.13;;;0.90;;
3287;SDS011;3260;52.438;13.502;2022-07-12T09:57:39;5.17;;;0.90;;
3287;SDS011;3260;52.438;13.502;2022-07-12T10:00:09;5.00;;;0.80;;
3287;SDS011;3260;52.438;13.502;2022-07-12T10:02:39;5.10;;;0.83;;
3287;SDS011;3260;52.438;13.502;2022-07-12T10:05:10;5.10;;;0.80;;
3287;SDS011;3260;52.438;13.502;2022-07-12T10:07:39;5.17;;;0.90;;
3287;SDS011;3260;52.438;13.502;2022-07-12T10:10:07;7.83;;;0.90;;
3287;SDS011;3260;52.438;13.502;2022-07-12T10:12:39;5.10;;;0.90;;
3287;SDS011;3260;52.438;13.502;2022-07-12T10:15:09;5.10;;;0.80;;
3287;SDS011;3260;52.438;13.502;2022-07-12T10:17:44;5.03;;;0.90;;
3287;SDS011;3260;52.438;13.502;2022-07-12T10:20:24;7.00;;;1.00;;
3287;SDS011;3260;52.438;13.502;2022-07-12T10:22:54;5.10;;;0.90;;
3287;SDS011;3260;52.438;13.502;2022-07-12T10:25:29;5.10;;;0.90;;
3287;SDS011;3260;52.438;13.502;2022-07-12T10:28:00;5.10;;;0.80;;
3287;SDS011;3260;52.438;13.502;2022-07-12T10:30:30;5.10;;;0.80;;
3287;SDS011;3260;52.438;13.502;2022-07-12T10:33:14;5.10;;;0.90;;
3287;SDS011;3260;52.438;13.502;2022-07-12T10:36:00;5.10;;;0.80;;
3287;SDS011;3260;52.438;13.502;2022-07-12T10:38:39;5.10;;;0.80;;
3287;SDS011;3260;52.438;13.502;2022-07-12T10:41:18;5.10;;;0.80;;
3287;SDS011;3260;52.438;13.502;2022-07-12T10:43:53;5.10;;;0.80;;
3287;SDS011;3260;52.438;13.502;2022-07-12T10:46:32;5.10;;;0.90;;
3287;SDS011;3260;52.438;13.502;2022-07-12T10:52:14;5.00;;;0.80;;
3287;SDS011;3260;52.438;13.502;2022-07-12T10:57:46;5.00;;;0.80;;
3287;SDS011;3260;52.438;13.502;2022-07-12T11:00:21;5.00;;;0.80;;
3287;SDS011;3260;52.438;13.502;2022-07-12T11:02:49;5.00;;;0.80;;
3287;SDS011;3260;52.438;13.502;2022-07-12T11:05:23;5.00;;;0.80;;
3287;SDS011;3260;52.438;13.502;2022-07-12T11:07:55;5.00;;;0.80;;
3287;SDS011;3260;52.438;13.502;2022-07-12T11:10:24;4.90;;;0.80;;
3287;SDS011;3260;52.438;13.502;2022-07-12T11:12:52;4.80;;;0.80;;
3287;SDS011;3260;52.438;13.502;2022-07-12T11:15:22;5.63;;;0.90;;
3287;SDS011;3260;52.438;13.502;2022-07-12T11:17:50;5.47;;;2.13;;
3287;SDS011;3260;52.438;13.502;2022-07-12T11:20:18;4.63;;;0.80;;
3287;SDS011;3260;52.438;13.502;2022-07-12T11:22:46;5.83;;;2.17;;
3287;SDS011;3260;52.438;13.502;2022-07-12T11:25:19;4.63;;;0.80;;
3287;SDS011;3260;52.438;13.502;2022-07-12T11:27:47;4.60;;;0.80;;
3287;SDS011;3260;52.438;13.502;2022-07-12T11:30:16;4.60;;;0.80;;
3287;SDS011;3260;52.438;13.502;2022-07-12T11:32:44;4.30;;;0.73;;
3287;SDS011;3260;52.438;13.502;2022-07-12T11:35:20;4.30;;;0.80;;
3287;SDS011;3260;52.438;13.502;2022-07-12T11:37:52;4.20;;;0.70;;
3287;SDS011;3260;52.438;13.502;2022-07-12T11:40:27;4.07;;;0.80;;
3287;SDS011;3260;52.438;13.502;2022-07-12T11:42:57;4.10;;;0.80;;
3287;SDS011;3260;52.438;13.502;2022-07-12T11:45:27;3.97;;;0.70;;
3287;SDS011;3260;52.438;13.502;2022-07-12T11:47:57;4.00;;;0.80;;
3287;SDS011;3260;52.438;13.502;2022-07-12T11:50:28;3.87;;;0.70;;
3287;SDS011;3260;52.438;13.502;2022-07-12T11:53:01;4.10;;;0.70;;
3287;SDS011;3260;52.438;13.502;2022-07-12T11:55:32;4.40;;;0.80;;
3287;SDS011;3260;52.438;13.502;2022-07-12T11:58:10;4.43;;;0.80;;
3287;SDS011;3260;52.438;13.502;2022-07-12T12:00:39;4.37;;;0.80;;
3287;SDS011;3260;52.438;13.502;2022-07-12T12:03:08;4.30;;;0.70;;
3287;SDS011;3260;52.438;13.502;2022-07-12T12:05:38;4.20;;;0.73;;
3287;SDS011;3260;52.438;13.502;2022-07-12T12:08:07;4.30;;;1.00;;
3287;SDS011;3260;52.438;13.502;2022-07-12T12:10:40;4.13;;;0.80;;
3287;SDS011;3260;52.438;13.502;2022-07-12T12:13:13;4.07;;;0.80;;
3287;SDS011;3260;52.438;13.502;2022-07-12T12:15:48;3.70;;;0.70;;
3287;SDS011;3260;52.438;13.502;2022-07-12T12:18:28;3.30;;;0.70;;
3287;SDS011;3260;52.438;13.502;2022-07-12T12:21:01;3.00;;;0.70;;
3287;SDS011;3260;52.438;13.502;2022-07-12T12:23:32;3.00;;;0.70;;
3287;SDS011;3260;52.438;13.502;2022-07-12T12:26:14;3.22;;;0.70;;
3287;SDS011;3260;52.438;13.502;2022-07-12T12:28:44;3.50;;;0.70;;
3287;SDS011;3260;52.438;13.502;2022-07-12T12:31:16;3.70;;;0.80;;
3287;SDS011;3260;52.438;13.502;2022-07-12T12:33:46;3.40;;;0.70;;
3287;SDS011;3260;52.438;13.502;2022-07-12T12:36:17;3.30;;;0.70;;
3287;SDS011;3260;52.438;13.502;2022-07-12T12:38:49;3.25;;;0.70;;
3287;SDS011;3260;52.438;13.502;2022-07-12T12:41:20;3.40;;;0.80;;
3287;SDS011;3260;52.438;13.502;2022-07-12T12:43:56;3.15;;;0.70;;
3287;SDS011;3260;52.438;13.502;2022-07-12T12:49:14;2.85;;;0.70;;
3287;SDS011;3260;52.438;13.502;2022-07-12T12:51:52;2.97;;;0.70;;
3287;SDS011;3260;52.438;13.502;2022-07-12T12:54:32;3.00;;;0.70;;
3287;SDS011;3260;52.438;13.502;2022-07-12T12:57:03;3.15;;;0.70;;
3287;SDS011;3260;52.438;13.502;2022-07-12T12:59:33;3.03;;;0.70;;
3287;SDS011;3260;52.438;13.502;2022-07-12T13:02:03;2.90;;;0.70;;
3287;SDS011;3260;52.438;13.502;2022-07-12T13:04:34;2.70;;;0.70;;
3287;SDS011;3260;52.438;13.502;2022-07-12T13:07:04;4.03;;;0.70;;
3287;SDS011;3260;52.438;13.502;2022-07-12T13:09:39;2.60;;;0.70;;
3287;SDS011;3260;52.438;13.502;2022-07-12T13:12:08;2.47;;;0.70;;
3287;SDS011;3260;52.438;13.502;2022-07-12T13:14:37;2.42;;;0.63;;
3287;SDS011;3260;52.438;13.502;2022-07-12T13:17:05;2.60;;;0.80;;
3287;SDS011;3260;52.438;13.502;2022-07-12T13:19:33;2.30;;;0.70;;
3287;SDS011;3260;52.438;13.502;2022-07-12T13:22:03;2.50;;;0.77;;
3287;SDS011;3260;52.438;13.502;2022-07-12T13:24:32;2.40;;;0.80;;
3287;SDS011;3260;52.438;13.502;2022-07-12T13:27:01;2.70;;;0.70;;
3287;SDS011;3260;52.438;13.502;2022-07-12T13:29:30;2.67;;;0.70;;
3287;SDS011;3260;52.438;13.502;2022-07-12T13:31:58;2.70;;;0.70;;
3287;SDS011;3260;52.438;13.502;2022-07-12T13:34:26;2.60;;;0.70;;
3287;SDS011;3260;52.438;13.502;2022-07-12T13:36:54;2.47;;;0.70;;
3287;SDS011;3260;52.438;13.502;2022-07-12T13:39:23;2.55;;;0.70;;
3287;SDS011;3260;52.438;13.502;2022-07-12T13:42:09;2.85;;;0.70;;
3287;SDS011;3260;52.438;13.502;2022-07-12T13:44:39;2.90;;;0.70;;
3287;SDS011;3260;52.438;13.502;2022-07-12T13:47:09;2.80;;;0.70;;
3287;SDS011;3260;52.438;13.502;2022-07-12T13:49:37;2.70;;;0.70;;
3287;SDS011;3260;52.438;13.502;2022-07-12T13:52:05;2.83;;;0.70;;
3287;SDS011;3260;52.438;13.502;2022-07-12T13:54:34;2.78;;;0.70;;
3287;SDS011;3260;52.438;13.502;2022-07-12T13:57:02;2.60;;;0.70;;
3287;SDS011;3260;52.438;13.502;2022-07-12T13:59:31;2.60;;;0.70;;
3287;SDS011;3260;52.438;13.502;2022-07-12T14:02:01;2.20;;;0.60;;
3287;SDS011;3260;52.438;13.502;2022-07-12T14:04:30;2.20;;;0.70;;
3287;SDS011;3260;52.438;13.502;2022-07-12T14:06:58;2.20;;;0.70;;
3287;SDS011;3260;52.438;13.502;2022-07-12T14:09:29;2.35;;;0.60;;
3287;SDS011;3260;52.438;13.502;2022-07-12T14:11:57;2.65;;;0.80;;
3287;SDS011;3260;52.438;13.502;2022-07-12T14:14:28;2.40;;;0.68;;
3287;SDS011;3260;52.438;13.502;2022-07-12T14:17:15;2.60;;;0.70;;
3287;SDS011;3260;52.438;13.502;2022-07-12T14:19:43;2.70;;;0.70;;
3287;SDS011;3260;52.438;13.502;2022-07-12T14:22:11;2.85;;;0.70;;
3287;SDS011;3260;52.438;13.502;2022-07-12T14:24:39;3.15;;;0.70;;
3287;SDS011;3260;52.438;13.502;2022-07-12T14:27:07;3.28;;;0.70;;
3287;SDS011;3260;52.438;13.502;2022-07-12T14:29:36;3.50;;;0.80;;
3287;SDS011;3260;52.438;13.502;2022-07-12T14:32:04;3.67;;;0.70;;
3287;SDS011;3260;52.438;13.502;2022-07-12T14:34:34;3.50;;;0.70;;
3287;SDS011;3260;52.438;13.502;2022-07-12T14:37:02;3.70;;;0.70;;
3287;SDS011;3260;52.438;13.502;2022-07-12T14:39:30;3.50;;;0.70;;
3287;SDS011;3260;52.438;13.502;2022-07-12T14:41:59;3.25;;;0.70;;
3287;SDS011;3260;52.438;13.502;2022-07-12T14:44:27;2.78;;;0.70;;
3287;SDS011;3260;52.438;13.502;2022-07-12T14:46:55;2.80;;;0.70;;
3287;SDS011;3260;52.438;13.502;2022-07-12T14:49:24;2.70;;;0.70;;
3287;SDS011;3260;52.438;13.502;2022-07-12T14:51:55;2.63;;;0.70;;
3287;SDS011;3260;52.438;13.502;2022-07-12T14:54:24;2.65;;;0.65;;
3287;SDS011;3260;52.438;13.502;2022-07-12T14:56:52;2.65;;;0.70;;
3287;SDS011;3260;52.438;13.502;2022-07-12T14:59:21;2.60;;;0.70;;
3287;SDS011;3260;52.438;13.502;2022-07-12T15:01:49;2.60;;;0.70;;
3287;SDS011;3260;52.438;13.502;2022-07-12T15:04:18;2.75;;;0.70;;
3287;SDS011;3260;52.438;13.502;2022-07-12T15:06:46;2.90;;;0.70;;
3287;SDS011;3260;52.438;13.502;2022-07-12T15:09:15;3.05;;;0.70;;
3287;SDS011;3260;52.438;13.502;2022-07-12T15:11:43;3.10;;;0.70;;
3287;SDS011;3260;52.438;13.502;2022-07-12T15:14:12;3.15;;;0.70;;
3287;SDS011;3260;52.438;13.502;2022-07-12T15:16:40;3.35;;;0.73;;
3287;SDS011;3260;52.438;13.502;2022-07-12T15:19:08;3.53;;;0.70;;
3287;SDS011;3260;52.438;13.502;2022-07-12T15:21:36;3.30;;;0.70;;
3287;SDS011;3260;52.438;13.502;2022-07-12T15:24:04;3.00;;;0.70;;
3287;SDS011;3260;52.438;13.502;2022-07-12T15:26:34;2.90;;;0.70;;
3287;SDS011;3260;52.438;13.502;2022-07-12T15:29:04;3.00;;;0.70;;
3287;SDS011;3260;52.438;13.502;2022-07-12T15:31:32;3.30;;;0.80;;
3287;SDS011;3260;52.438;13.502;2022-07-12T15:34:00;3.50;;;0.80;;
3287;SDS011;3260;52.438;13.502;2022-07-12T15:36:29;3.53;;;0.70;;
3287;SDS011;3260;52.438;13.502;2022-07-12T15:38:58;3.70;;;0.70;;
3287;SDS011;3260;52.438;13.502;2022-07-12T15:41:26;3.60;;;0.80;;
3287;SDS011;3260;52.438;13.502;2022-07-12T15:43:56;3.80;;;0.80;;
3287;SDS011;3260;52.438;13.502;2022-07-12T15:46:25;3.97;;;0.80;;
3287;SDS011;3260;52.438;13.502;2022-07-12T15:48:53;3.97;;;0.70;;
3287;SDS011;3260;52.438;13.502;2022-07-12T15:51:21;4.10;;;0.80;;
3287;SDS011;3260;52.438;13.502;2022-07-12T15:54:09;4.03;;;0.80;;
3287;SDS011;3260;52.438;13.502;2022-07-12T15:56:36;3.90;;;0.80;;
3287;SDS011;3260;52.438;13.502;2022-07-12T15:59:06;3.50;;;0.70;;
3287;SDS011;3260;52.438;13.502;2022-07-12T16:01:34;3.30;;;0.70;;
3287;SDS011;3260;52.438;13.502;2022-07-12T16:04:03;3.25;;;0.70;;
3287;SDS011;3260;52.438;13.502;2022-07-12T16:06:31;3.10;;;0.70;;
3287;SDS011;3260;52.438;13.502;2022-07-12T16:09:01;3.10;;;0.70;;
3287;SDS011;3260;52.438;13.502;2022-07-12T16:11:29;3.30;;;0.70;;
3287;SDS011;3260;52.438;13.502;2022-07-12T16:13:57;3.33;;;0.70;;
3287;SDS011;3260;52.438;13.502;2022-07-12T16:16:27;3.30;;;0.70;;
3287;SDS011;3260;52.438;13.502;2022-07-12T16:18:55;3.28;;;0.70;;
3287;SDS011;3260;52.438;13.502;2022-07-12T16:21:23;3.30;;;0.77;;
3287;SDS011;3260;52.438;13.502;2022-07-12T16:23:51;3.03;;;0.70;;
3287;SDS011;3260;52.438;13.502;2022-07-12T16:26:19;2.92;;;0.70;;
3287;SDS011;3260;52.438;13.502;2022-07-12T16:28:47;3.05;;;0.70;;
3287;SDS011;3260;52.438;13.502;2022-07-12T16:31:15;3.50;;;0.70;;
3287;SDS011;3260;52.438;13.502;2022-07-12T16:34:05;3.70;;;0.70;;
3287;SDS011;3260;52.438;13.502;2022-07-12T16:36:33;3.70;;;0.70;;
3287;SDS011;3260;52.438;13.502;2022-07-12T16:39:01;3.50;;;0.70;;
3287;SDS011;3260;52.438;13.502;2022-07-12T16:41:29;4.50;;;1.60;;
3287;SDS011;3260;52.438;13.502;2022-07-12T16:43:57;3.30;;;0.70;;
3287;SDS011;3260;52.438;13.502;2022-07-12T16:46:25;3.50;;;0.70;;
3287;SDS011;3260;52.438;13.502;2022-07-12T16:48:54;3.97;;;0.90;;
3287;SDS011;3260;52.438;13.502;2022-07-12T16:51:23;4.00;;;0.77;;
3287;SDS011;3260;52.438;13.502;2022-07-12T16:53:52;3.97;;;0.70;;
3287;SDS011;3260;52.438;13.502;2022-07-12T16:56:23;4.00;;;0.70;;
3287;SDS011;3260;52.438;13.502;2022-07-12T16:58:53;3.97;;;0.70;;
3287;SDS011;3260;52.438;13.502;2022-07-12T17:01:23;3.83;;;0.80;;
3287;SDS011;3260;52.438;13.502;2022-07-12T17:03:52;3.87;;;0.70;;
3287;SDS011;3260;52.438;13.502;2022-07-12T17:06:21;3.93;;;0.70;;
3287;SDS011;3260;52.438;13.502;2022-07-12T17:08:50;3.93;;;0.80;;
3287;SDS011;3260;52.438;13.502;2022-07-12T17:11:19;4.00;;;0.70;;
3287;SDS011;3260;52.438;13.502;2022-07-12T17:13:47;4.00;;;0.70;;
3287;SDS011;3260;52.438;13.502;2022-07-12T17:16:15;3.87;;;0.70;;
3287;SDS011;3260;52.438;13.502;2022-07-12T17:18:43;3.90;;;0.70;;
3287;SDS011;3260;52.438;13.502;2022-07-12T17:21:19;3.80;;;0.70;;
3287;SDS011;3260;52.438;13.502;2022-07-12T17:23:48;3.70;;;0.70;;
3287;SDS011;3260;52.438;13.502;2022-07-12T17:26:37;3.70;;;0.70;;
3287;SDS011;3260;52.438;13.502;2022-07-12T17:29:05;3.77;;;0.70;;
3287;SDS011;3260;52.438;13.502;2022-07-12T17:31:33;3.90;;;0.70;;
3287;SDS011;3260;52.438;13.502;2022-07-12T17:34:02;3.97;;;0.70;;
3287;SDS011;3260;52.438;13.502;2022-07-12T17:36:30;4.00;;;0.70;;
3287;SDS011;3260;52.438;13.502;2022-07-12T17:38:59;4.20;;;0.80;;
3287;SDS011;3260;52.438;13.502;2022-07-12T17:41:27;4.33;;;0.80;;
3287;SDS011;3260;52.438;13.502;2022-07-12T17:43:56;4.47;;;0.73;;
3287;SDS011;3260;52.438;13.502;2022-07-12T17:46:25;4.50;;;0.80;;
3287;SDS011;3260;52.438;13.502;2022-07-12T17:48:54;4.43;;;0.80;;
3287;SDS011;3260;52.438;13.502;2022-07-12T17:51:23;4.43;;;0.80;;
3287;SDS011;3260;52.438;13.502;2022-07-12T17:53:52;4.37;;;0.77;;
3287;SDS011;3260;52.438;13.502;2022-07-12T17:56:20;4.40;;;0.70;;
3287;SDS011;3260;52.438;13.502;2022-07-12T17:58:48;4.40;;;0.80;;
3287;SDS011;3260;52.438;13.502;2022-07-12T18:01:18;4.40;;;0.80;;
3287;SDS011;3260;52.438;13.502;2022-07-12T18:03:48;4.43;;;0.70;;
3287;SDS011;3260;52.438;13.502;2022-07-12T18:06:19;4.37;;;0.70;;
3287;SDS011;3260;52.438;13.502;2022-07-12T18:08:48;4.47;;;0.80;;
3287;SDS011;3260;52.438;13.502;2022-07-12T18:11:20;4.70;;;0.80;;
3287;SDS011;3260;52.438;13.502;2022-07-12T18:14:07;4.83;;;0.80;;
3287;SDS011;3260;52.438;13.502;2022-07-12T18:16:54;5.00;;;0.80;;
3287;SDS011;3260;52.438;13.502;2022-07-12T18:19:40;5.10;;;0.80;;
3287;SDS011;3260;52.438;13.502;2022-07-12T18:22:08;5.13;;;0.90;;
3287;SDS011;3260;52.438;13.502;2022-07-12T18:24:36;5.20;;;0.80;;
3287;SDS011;3260;52.438;13.502;2022-07-12T18:27:05;5.30;;;0.80;;
3287;SDS011;3260;52.438;13.502;2022-07-12T18:29:33;5.30;;;0.87;;
3287;SDS011;3260;52.438;13.502;2022-07-12T18:32:03;5.33;;;0.90;;
3287;SDS011;3260;52.438;13.502;2022-07-12T18:34:32;5.53;;;0.87;;
3287;SDS011;3260;52.438;13.502;2022-07-12T18:37:01;5.50;;;0.90;;
3287;SDS011;3260;52.438;13.502;2022-07-12T18:39:29;5.50;;;1.00;;
3287;SDS011;3260;52.438;13.502;2022-07-12T18:41:58;5.50;;;0.90;;
3287;SDS011;3260;52.438;13.502;2022-07-12T18:44:26;5.50;;;0.90;;
3287;SDS011;3260;52.438;13.502;2022-07-12T18:46:55;5.50;;;0.90;;
3287;SDS011;3260;52.438;13.502;2022-07-12T18:49:24;5.90;;;0.97;;
3287;SDS011;3260;52.438;13.502;2022-07-12T18:51:54;5.40;;;0.90;;
3287;SDS011;3260;52.438;13.502;2022-07-12T18:54:22;5.50;;;0.90;;
3287;SDS011;3260;52.438;13.502;2022-07-12T18:56:50;5.50;;;0.90;;
3287;SDS011;3260;52.438;13.502;2022-07-12T18:59:20;5.50;;;0.87;;
3287;SDS011;3260;52.438;13.502;2022-07-12T19:01:49;5.50;;;0.90;;
3287;SDS011;3260;52.438;13.502;2022-07-12T19:04:17;5.37;;;0.90;;
3287;SDS011;3260;52.438;13.502;2022-07-12T19:06:47;5.50;;;0.90;;
3287;SDS011;3260;52.438;13.502;2022-07-12T19:09:15;5.50;;;0.90;;
3287;SDS011;3260;52.438;13.502;2022-07-12T19:11:43;5.40;;;0.90;;
3287;SDS011;3260;52.438;13.502;2022-07-12T19:14:11;5.50;;;0.90;;
3287;SDS011;3260;52.438;13.502;2022-07-12T19:16:40;5.50;;;0.90;;
3287;SDS011;3260;52.438;13.502;2022-07-12T19:19:08;5.50;;;0.90;;
3287;SDS011;3260;52.438;13.502;2022-07-12T19:21:36;5.50;;;0.90;;
3287;SDS011;3260;52.438;13.502;2022-07-12T19:24:06;5.53;;;0.90;;
3287;SDS011;3260;52.438;13.502;2022-07-12T19:26:34;5.50;;;0.90;;